createdAt,value
2018-02-08T00:01:15.092Z,32.57
2018-02-08T00:03:42.071Z,32.13
2018-02-08T00:06:08.338Z,31.80
2018-02-08T00:08:36.226Z,31.80
2018-02-08T00:11:02.450Z,30.70
2018-02-08T00:13:28.732Z,33.03
2018-02-08T00:15:56.731Z,31.80
2018-02-08T00:18:23.267Z,33.50
2018-02-08T00:20:49.901Z,31.60
2018-02-08T00:23:16.311Z,33.10
2018-02-08T00:25:42.753Z,31.83
2018-02-08T00:28:10.082Z,32.80
2018-02-08T00:30:36.441Z,34.20
2018-02-08T00:33:04.143Z,34.67
2018-02-08T00:35:31.161Z,32.10
2018-02-08T00:37:57.635Z,32.60
2018-02-08T00:40:24.012Z,35.00
2018-02-08T00:42:50.722Z,32.23
2018-02-08T00:45:24.831Z,33.00
2018-02-08T00:47:51.331Z,28.53
2018-02-08T00:50:17.644Z,27.23
2018-02-08T00:52:44.448Z,35.77
2018-02-08T00:55:11.643Z,33.67
2018-02-08T00:57:39.968Z,31.97
2018-02-08T01:00:06.661Z,31.63
2018-02-08T01:02:33.076Z,33.63
2018-02-08T01:05:24.325Z,32.60
2018-02-08T01:07:59.914Z,30.30
2018-02-08T01:10:30.301Z,32.73
2018-02-08T01:12:56.740Z,33.17
2018-02-08T01:15:23.085Z,33.90
2018-02-08T01:17:49.441Z,31.17
2018-02-08T01:20:15.897Z,31.63
2018-02-08T01:22:42.397Z,34.57
2018-02-08T01:25:08.915Z,35.07
2018-02-08T01:27:35.560Z,35.33
2018-02-08T01:30:01.974Z,33.87
2018-02-08T01:32:28.302Z,35.27
2018-02-08T01:34:54.792Z,31.87
2018-02-08T01:37:21.192Z,34.00
2018-02-08T01:39:47.451Z,34.07
2018-02-08T01:42:33.675Z,34.97
2018-02-08T01:44:59.924Z,31.23
2018-02-08T01:47:31.000Z,32.60
2018-02-08T01:49:57.565Z,35.53
2018-02-08T01:52:23.962Z,35.47
2018-02-08T01:54:50.242Z,32.80
2018-02-08T01:57:16.724Z,34.50
2018-02-08T01:59:43.390Z,32.33
2018-02-08T02:02:09.838Z,36.47
2018-02-08T02:04:36.289Z,33.10
2018-02-08T02:07:02.536Z,34.07
2018-02-08T02:12:30.362Z,35.47
2018-02-08T02:14:56.892Z,34.63
2018-02-08T02:17:23.173Z,32.73
2018-02-08T02:19:49.783Z,33.60
2018-02-08T02:22:20.841Z,33.33
2018-02-08T02:24:47.282Z,36.17
2018-02-08T02:27:17.846Z,32.50
2018-02-08T02:29:44.246Z,35.60
2018-02-08T02:32:16.308Z,35.30
2018-02-08T02:40:20.834Z,34.10
2018-02-08T02:43:03.309Z,33.30
2018-02-08T02:45:30.247Z,34.73
2018-02-08T02:47:56.527Z,35.00
2018-02-08T02:50:22.908Z,31.70
2018-02-08T02:55:27.052Z,34.17
2018-02-08T02:57:53.305Z,31.47
2018-02-08T03:00:19.582Z,33.50
2018-02-08T03:02:46.939Z,34.63
2018-02-08T03:05:14.470Z,36.13
2018-02-08T03:07:40.795Z,38.00
2018-02-08T03:10:07.090Z,34.37
2018-02-08T03:12:33.373Z,34.40
2018-02-08T03:15:01.169Z,34.23
2018-02-08T03:17:30.925Z,32.67
2018-02-08T03:19:57.806Z,35.60
2018-02-08T03:22:24.250Z,34.00
2018-02-08T03:24:50.690Z,33.53
2018-02-08T03:27:18.687Z,33.80
2018-02-08T03:29:46.811Z,33.67
2018-02-08T03:32:14.457Z,35.77
2018-02-08T03:34:40.858Z,33.63
2018-02-08T03:40:10.818Z,36.27
2018-02-08T03:43:01.828Z,35.83
2018-02-08T03:48:22.618Z,36.43
2018-02-08T03:50:48.966Z,35.17
2018-02-08T03:53:25.005Z,36.70
2018-02-08T03:55:51.345Z,36.80
2018-02-08T03:58:26.246Z,37.30
2018-02-08T04:03:45.756Z,35.10
2018-02-08T04:06:29.877Z,36.03
2018-02-08T04:08:56.121Z,36.00
2018-02-08T04:17:30.444Z,35.10
2018-02-08T04:20:17.458Z,35.70
2018-02-08T04:22:43.736Z,33.10
2018-02-08T04:25:15.017Z,33.87
2018-02-08T04:27:41.419Z,34.60
2018-02-08T04:30:24.879Z,35.40
2018-02-08T04:36:01.465Z,33.67
2018-02-08T04:38:43.308Z,33.93
2018-02-08T04:44:26.879Z,35.73
2018-02-08T04:47:03.540Z,35.53
2018-02-08T04:49:29.882Z,35.33
2018-02-08T04:51:56.388Z,35.07
2018-02-08T04:54:22.733Z,36.80
2018-02-08T04:56:49.077Z,35.87
2018-02-08T05:01:52.994Z,35.57
2018-02-08T05:04:33.202Z,35.23
2018-02-08T05:07:00.361Z,35.17
2018-02-08T05:09:30.064Z,34.77
2018-02-08T05:12:10.352Z,36.13
2018-02-08T05:14:42.046Z,35.80
2018-02-08T05:17:08.811Z,35.83
2018-02-08T05:19:54.991Z,36.63
2018-02-08T05:22:22.803Z,37.43
2018-02-08T05:30:55.640Z,34.60
2018-02-08T05:33:21.895Z,36.40
2018-02-08T05:38:53.222Z,35.03
2018-02-08T05:41:23.169Z,35.03
2018-02-08T05:47:00.999Z,34.60
2018-02-08T05:49:27.294Z,36.70
2018-02-08T05:51:53.712Z,36.13
2018-02-08T05:57:10.659Z,35.22
2018-02-08T05:59:37.025Z,35.20
2018-02-08T06:02:03.264Z,34.87
2018-02-08T06:04:31.096Z,32.17
2018-02-08T06:06:57.346Z,35.73
2018-02-08T06:09:23.691Z,34.90
2018-02-08T06:11:49.897Z,33.83
2018-02-08T06:14:16.093Z,35.33
2018-02-08T06:16:42.403Z,36.33
2018-02-08T06:19:08.632Z,37.73
2018-02-08T06:21:34.808Z,35.83
2018-02-08T06:24:01.257Z,35.33
2018-02-08T06:26:27.617Z,36.40
2018-02-08T06:28:53.820Z,34.53
2018-02-08T06:31:22.036Z,34.57
2018-02-08T06:33:50.724Z,37.70
2018-02-08T06:36:17.154Z,38.37
2018-02-08T06:38:44.390Z,38.83
2018-02-08T06:41:12.680Z,35.13
2018-02-08T06:43:38.932Z,34.90
2018-02-08T06:46:05.463Z,35.20
2018-02-08T06:51:54.217Z,35.13
2018-02-08T06:54:30.738Z,40.23
2018-02-08T06:56:56.966Z,40.47
2018-02-08T06:59:24.408Z,38.10
2018-02-08T07:02:03.886Z,40.50
2018-02-08T07:07:29.770Z,39.00
2018-02-08T07:10:02.902Z,41.20
2018-02-08T07:12:30.351Z,37.93
2018-02-08T07:14:57.353Z,34.93
2018-02-08T07:17:23.827Z,36.10
2018-02-08T07:22:48.171Z,37.17
2018-02-08T07:25:15.190Z,36.70
2018-02-08T07:27:41.916Z,41.67
2018-02-08T07:30:11.332Z,38.53
2018-02-08T07:32:37.885Z,36.30
2018-02-08T07:35:04.932Z,37.00
2018-02-08T07:37:31.181Z,37.87
2018-02-08T07:43:12.638Z,44.20
2018-02-08T07:45:39.022Z,39.97
2018-02-08T07:51:00.052Z,39.53
2018-02-08T07:53:31.546Z,36.10
2018-02-08T07:55:57.814Z,34.93
2018-02-08T07:58:24.273Z,38.10
2018-02-08T08:06:59.015Z,35.40
2018-02-08T08:09:26.664Z,34.40
2018-02-08T08:14:25.514Z,37.73
2018-02-08T08:16:52.091Z,34.10
2018-02-08T08:19:18.300Z,38.50
2018-02-08T08:21:44.509Z,38.27
2018-02-08T08:24:19.720Z,36.73
2018-02-08T08:26:46.198Z,38.80
2018-02-08T08:29:12.575Z,35.73
2018-02-08T08:31:38.796Z,39.10
2018-02-08T08:34:05.119Z,35.40
2018-02-08T08:36:31.324Z,39.23
2018-02-08T08:41:38.428Z,36.57
2018-02-08T08:44:04.789Z,34.70
2018-02-08T08:46:31.762Z,35.03
2018-02-08T08:48:58.248Z,33.33
2018-02-08T08:51:24.428Z,36.37
2018-02-08T08:56:30.496Z,37.30
2018-02-08T08:58:56.723Z,36.70
2018-02-08T09:01:24.253Z,39.80
2018-02-08T09:03:50.632Z,40.10
2018-02-08T09:06:18.614Z,35.87
2018-02-08T09:08:45.051Z,38.27
2018-02-08T09:11:11.298Z,36.60
2018-02-08T09:13:37.500Z,36.43
2018-02-08T09:16:05.262Z,36.63
2018-02-08T09:18:31.463Z,38.27
2018-02-08T09:20:57.660Z,36.53
2018-02-08T09:23:24.175Z,33.30
2018-02-08T09:25:51.481Z,34.03
2018-02-08T09:28:17.668Z,37.57
2018-02-08T09:30:44.260Z,32.50
2018-02-08T09:33:11.687Z,37.83
2018-02-08T09:35:38.039Z,36.63
2018-02-08T09:38:04.630Z,35.47
2018-02-08T09:40:31.129Z,32.40
2018-02-08T09:42:57.936Z,32.67
2018-02-08T09:45:25.714Z,34.73
2018-02-08T09:47:52.194Z,39.77
2018-02-08T09:50:18.555Z,36.23
2018-02-08T09:52:45.938Z,36.77
2018-02-08T09:55:21.889Z,39.97
2018-02-08T10:00:24.639Z,38.60
2018-02-08T10:02:50.917Z,32.07
2018-02-08T10:05:17.190Z,23.70
2018-02-08T10:07:43.554Z,42.50
2018-02-08T10:10:31.371Z,34.60
2018-02-08T10:12:57.837Z,37.00
2018-02-08T10:15:24.016Z,38.97
2018-02-08T10:17:50.273Z,33.30
2018-02-08T10:20:28.926Z,35.57
2018-02-08T10:22:55.458Z,37.80
2018-02-08T10:25:21.680Z,38.43
2018-02-08T10:27:58.473Z,42.03
2018-02-08T10:30:24.757Z,39.43
2018-02-08T10:33:00.305Z,40.17
2018-02-08T10:35:26.673Z,34.17
2018-02-08T10:37:55.767Z,40.60
2018-02-08T10:40:23.425Z,38.47
2018-02-08T10:42:53.267Z,39.70
2018-02-08T10:45:32.028Z,38.47
2018-02-08T10:47:59.409Z,39.03
2018-02-08T10:50:25.613Z,43.40
2018-02-08T10:52:52.046Z,40.30
2018-02-08T10:57:55.244Z,40.17
2018-02-08T11:00:23.254Z,42.17
2018-02-08T11:02:49.494Z,41.13
2018-02-08T11:05:15.948Z,40.97
2018-02-08T11:07:42.172Z,40.43
2018-02-08T11:10:09.287Z,45.23
2018-02-08T11:12:35.552Z,32.97
2018-02-08T11:15:03.657Z,42.33
2018-02-08T11:17:29.889Z,42.70
2018-02-08T11:19:56.782Z,43.83
2018-02-08T11:22:23.008Z,45.20
2018-02-08T11:24:49.366Z,42.40
2018-02-08T11:27:15.539Z,41.47
2018-02-08T11:29:41.860Z,42.80
2018-02-08T11:32:08.247Z,39.97
2018-02-08T11:34:34.511Z,39.97
2018-02-08T11:37:00.863Z,44.20
2018-02-08T11:39:27.891Z,41.97
2018-02-08T11:41:59.066Z,45.87
2018-02-08T11:44:30.899Z,41.90
2018-02-08T11:46:57.484Z,41.53
2018-02-08T11:49:23.673Z,43.93
2018-02-08T11:51:50.474Z,41.87
2018-02-08T11:54:16.738Z,42.23
2018-02-08T11:56:44.418Z,45.13
2018-02-08T11:59:10.617Z,43.83
2018-02-08T12:01:37.665Z,41.73
2018-02-08T12:04:04.314Z,43.43
2018-02-08T12:06:31.637Z,39.37
2018-02-08T12:08:57.856Z,42.30
2018-02-08T12:11:24.240Z,43.27
2018-02-08T12:13:50.435Z,44.10
2018-02-08T12:16:16.652Z,42.47
2018-02-08T12:18:43.172Z,46.30
2018-02-08T12:21:09.491Z,44.83
2018-02-08T12:23:35.850Z,44.30
2018-02-08T12:26:02.529Z,42.50
2018-02-08T12:28:28.804Z,45.00
2018-02-08T12:30:55.033Z,43.63
2018-02-08T12:33:22.588Z,46.00
2018-02-08T12:35:50.839Z,41.57
2018-02-08T12:38:17.468Z,40.10
2018-02-08T12:40:47.686Z,44.03
2018-02-08T12:43:14.086Z,41.53
2018-02-08T12:45:41.569Z,43.77
2018-02-08T12:48:07.901Z,47.00
2018-02-08T12:50:34.628Z,43.97
2018-02-08T12:53:00.920Z,45.80
2018-02-08T12:55:27.200Z,44.70
2018-02-08T12:57:53.452Z,42.90
2018-02-08T13:00:19.670Z,42.10
2018-02-08T13:02:49.293Z,44.13
2018-02-08T13:05:16.060Z,47.90
2018-02-08T13:07:42.539Z,48.43
2018-02-08T13:10:08.972Z,50.40
2018-02-08T13:12:35.216Z,45.50
2018-02-08T13:15:13.962Z,44.50
2018-02-08T13:17:41.251Z,43.80
2018-02-08T13:20:09.200Z,44.10
2018-02-08T13:22:35.427Z,43.17
2018-02-08T13:25:01.652Z,43.20
2018-02-08T13:27:28.708Z,43.87
2018-02-08T13:29:55.005Z,40.50
2018-02-08T13:32:21.444Z,43.07
2018-02-08T13:34:47.764Z,45.13
2018-02-08T13:37:13.976Z,46.30
2018-02-08T13:39:41.236Z,48.03
2018-02-08T13:42:11.589Z,44.83
2018-02-08T13:44:38.616Z,48.23
2018-02-08T13:47:05.656Z,48.10
2018-02-08T13:49:33.013Z,46.73
2018-02-08T13:52:06.468Z,41.43
2018-02-08T13:54:35.033Z,44.73
2018-02-08T13:57:18.033Z,42.50
2018-02-08T13:59:45.109Z,44.50
2018-02-08T14:02:11.341Z,48.07
2018-02-08T14:04:37.808Z,44.57
2018-02-08T14:07:04.105Z,49.33
2018-02-08T14:09:30.411Z,48.57
2018-02-08T14:11:59.086Z,47.03
2018-02-08T14:14:25.327Z,47.20
2018-02-08T14:16:51.682Z,50.40
2018-02-08T14:19:17.881Z,49.53
2018-02-08T14:21:44.100Z,43.63
2018-02-08T14:24:10.435Z,48.23
2018-02-08T14:26:36.633Z,49.60
2018-02-08T14:29:02.929Z,47.10
2018-02-08T14:31:30.565Z,49.27
2018-02-08T14:33:56.766Z,45.80
2018-02-08T14:36:23.073Z,48.37
2018-02-08T14:38:50.127Z,48.50
2018-02-08T14:41:16.476Z,48.97
2018-02-08T14:43:42.685Z,47.63
2018-02-08T14:48:42.161Z,48.83
2018-02-08T14:51:09.273Z,51.40
2018-02-08T14:53:35.837Z,53.80
2018-02-08T14:56:02.565Z,49.00
2018-02-08T14:58:28.790Z,50.07
2018-02-08T15:00:55.040Z,51.63
2018-02-08T15:03:21.981Z,50.80
2018-02-08T15:05:49.657Z,45.67
2018-02-08T15:08:15.880Z,45.53
2018-02-08T15:10:42.223Z,46.97
2018-02-08T15:13:09.269Z,46.63
2018-02-08T15:15:35.532Z,49.37
2018-02-08T15:18:01.768Z,49.90
2018-02-08T15:20:27.944Z,50.40
2018-02-08T15:22:56.315Z,49.30
2018-02-08T15:27:54.023Z,50.80
2018-02-08T15:30:21.338Z,49.13
2018-02-08T15:32:47.629Z,50.43
2018-02-08T15:35:14.248Z,48.90
2018-02-08T15:37:40.435Z,50.37
2018-02-08T15:40:06.839Z,54.60
2018-02-08T15:42:34.625Z,53.37
2018-02-08T15:45:00.976Z,50.30
2018-02-08T15:47:27.732Z,49.53
2018-02-08T15:49:54.287Z,50.60
2018-02-08T15:52:20.748Z,51.60
2018-02-08T15:54:47.146Z,52.57
2018-02-08T15:57:13.806Z,53.70
2018-02-08T15:59:40.428Z,51.53
2018-02-08T16:02:06.704Z,53.67
2018-02-08T16:04:33.399Z,54.60
2018-02-08T16:06:59.733Z,49.37
2018-02-08T16:09:26.088Z,54.73
2018-02-08T16:11:52.380Z,54.07
2018-02-08T16:14:18.617Z,50.50
2018-02-08T16:16:44.915Z,52.00
2018-02-08T16:19:11.623Z,48.33
2018-02-08T16:21:38.055Z,53.50
2018-02-08T16:24:04.341Z,48.93
2018-02-08T16:26:31.377Z,54.93
2018-02-08T16:28:57.705Z,48.80
2018-02-08T16:31:32.818Z,47.70
2018-02-08T16:33:59.375Z,49.07
2018-02-08T16:36:25.572Z,51.77
2018-02-08T16:38:52.671Z,49.57
2018-02-08T16:41:19.578Z,52.93
2018-02-08T16:43:45.833Z,50.63
2018-02-08T16:46:14.323Z,53.90
2018-02-08T16:48:40.772Z,51.33
2018-02-08T16:51:08.010Z,54.90
2018-02-08T16:53:34.349Z,50.53
2018-02-08T16:56:00.621Z,48.97
2018-02-08T16:58:26.926Z,48.87
2018-02-08T17:01:02.618Z,47.73
2018-02-08T17:03:30.921Z,49.67
2018-02-08T17:05:57.177Z,48.03
2018-02-08T17:08:23.359Z,43.87
2018-02-08T17:10:49.581Z,47.90
2018-02-08T17:13:17.595Z,47.20
2018-02-08T17:15:46.284Z,45.77
2018-02-08T17:18:12.653Z,42.70
2018-02-08T17:20:38.972Z,47.37
2018-02-08T17:23:05.267Z,45.20
2018-02-08T17:25:32.113Z,48.70
2018-02-08T17:27:58.316Z,49.93
2018-02-08T17:30:24.506Z,50.93
2018-02-08T17:32:50.818Z,48.13
2018-02-08T17:35:17.008Z,46.07
2018-02-08T17:37:43.292Z,47.10
2018-02-08T17:40:11.416Z,47.33
2018-02-08T17:42:37.647Z,45.20
2018-02-08T17:48:02.281Z,48.07
2018-02-08T17:50:29.359Z,48.20
2018-02-08T17:52:55.697Z,48.53
2018-02-08T17:55:22.140Z,46.50
2018-02-08T17:57:48.453Z,45.53
2018-02-08T18:00:15.853Z,48.80
2018-02-08T18:02:42.394Z,46.10
2018-02-08T18:05:08.632Z,45.13
2018-02-08T18:08:00.829Z,47.63
2018-02-08T18:10:27.941Z,46.63
2018-02-08T18:12:54.144Z,49.10
2018-02-08T18:15:20.460Z,47.50
2018-02-08T18:17:46.896Z,46.80
2018-02-08T18:20:23.140Z,46.60
2018-02-08T18:22:49.550Z,46.07
2018-02-08T18:25:17.122Z,44.07
2018-02-08T18:27:45.871Z,45.77
2018-02-08T18:30:12.860Z,46.60
2018-02-08T18:35:20.201Z,45.70
2018-02-08T18:37:46.487Z,46.10
2018-02-08T18:40:12.909Z,48.57
2018-02-08T18:42:39.218Z,45.93
2018-02-08T18:45:05.744Z,44.50
2018-02-08T18:47:31.960Z,46.10
2018-02-08T18:49:58.322Z,45.90
2018-02-08T18:52:24.640Z,46.00
2018-02-08T18:54:51.088Z,46.00
2018-02-08T18:57:18.548Z,45.83
2018-02-08T18:59:44.809Z,46.73
2018-02-08T19:02:11.485Z,45.67
2018-02-08T19:04:38.260Z,48.47
2018-02-08T19:07:04.768Z,46.10
2018-02-08T19:09:31.392Z,48.07
2018-02-08T19:11:57.799Z,48.23
2018-02-08T19:14:24.347Z,46.07
2018-02-08T19:16:50.877Z,43.70
2018-02-08T19:19:18.068Z,48.93
2018-02-08T19:21:44.272Z,45.70
2018-02-08T19:24:10.769Z,46.10
2018-02-08T19:26:37.056Z,46.43
2018-02-08T19:29:03.318Z,47.00
2018-02-08T19:31:29.737Z,46.67
2018-02-08T19:33:56.030Z,44.20
2018-02-08T19:36:25.134Z,46.23
2018-02-08T19:38:59.270Z,43.90
2018-02-08T19:41:25.568Z,46.30
2018-02-08T19:43:52.613Z,44.90
2018-02-08T19:46:20.212Z,44.33
2018-02-08T19:48:46.471Z,44.17
2018-02-08T19:51:12.881Z,44.40
2018-02-08T19:53:39.377Z,44.60
2018-02-08T19:56:05.623Z,46.97
2018-02-08T19:58:31.949Z,44.03
2018-02-08T20:01:01.640Z,43.53
2018-02-08T20:03:28.966Z,47.93
2018-02-08T20:05:55.311Z,43.00
2018-02-08T20:08:21.679Z,42.37
2018-02-08T20:13:59.470Z,42.13
2018-02-08T20:16:25.756Z,46.13
2018-02-08T20:18:55.110Z,44.83
2018-02-08T20:21:21.677Z,41.57
2018-02-08T20:23:47.941Z,45.80
2018-02-08T20:26:14.164Z,43.87
2018-02-08T20:28:40.458Z,42.53
2018-02-08T20:31:12.740Z,47.97
2018-02-08T20:33:41.892Z,47.03
2018-02-08T20:36:08.200Z,78.17
2018-02-08T20:38:34.633Z,47.00
2018-02-08T20:41:00.983Z,43.93
2018-02-08T20:43:28.884Z,43.97
2018-02-08T20:45:55.736Z,45.77
2018-02-08T20:48:27.667Z,44.30
2018-02-08T20:50:54.172Z,45.53
2018-02-08T20:53:22.676Z,46.27
2018-02-08T20:55:49.173Z,44.87
2018-02-08T20:58:15.356Z,44.10
2018-02-08T21:00:41.618Z,43.20
2018-02-08T21:03:09.680Z,43.37
2018-02-08T21:05:36.968Z,43.63
2018-02-08T21:08:08.077Z,45.60
2018-02-08T21:13:09.901Z,44.53
2018-02-08T21:15:39.218Z,42.97
2018-02-08T21:18:06.668Z,41.90
2018-02-08T21:20:32.867Z,43.60
2018-02-08T21:22:59.196Z,45.20
2018-02-08T21:25:29.246Z,46.43
2018-02-08T21:27:56.025Z,42.50
2018-02-08T21:30:24.959Z,42.80
2018-02-08T21:32:51.198Z,44.20
2018-02-08T21:35:17.529Z,45.90
2018-02-08T21:37:59.708Z,42.77
2018-02-08T21:40:25.914Z,44.40
2018-02-08T21:42:52.321Z,43.03
2018-02-08T21:45:19.757Z,44.40
2018-02-08T21:47:46.263Z,41.27
2018-02-08T21:50:12.542Z,43.70
2018-02-08T21:52:38.904Z,41.90
2018-02-08T21:55:05.091Z,42.50
2018-02-08T21:57:33.274Z,41.73
2018-02-08T21:59:59.580Z,40.60
2018-02-08T22:02:26.315Z,44.35
2018-02-08T22:04:52.556Z,42.67
2018-02-08T22:07:18.847Z,39.40
2018-02-08T22:09:45.234Z,40.63
2018-02-08T22:12:11.504Z,41.97
2018-02-08T22:14:37.737Z,45.73
2018-02-08T22:17:06.467Z,43.63
2018-02-08T22:19:33.616Z,41.00
2018-02-08T22:22:00.073Z,40.80
2018-02-08T22:24:29.452Z,42.60
2018-02-08T22:26:55.850Z,42.20
2018-02-08T22:29:22.120Z,42.67
2018-02-08T22:31:49.358Z,46.87
2018-02-08T22:34:15.693Z,42.00
2018-02-08T22:36:41.876Z,42.25
2018-02-08T22:39:08.477Z,42.77
2018-02-08T22:41:34.950Z,42.75
2018-02-08T22:44:01.153Z,43.20
2018-02-08T22:46:29.154Z,45.10
2018-02-08T22:48:57.584Z,42.80
2018-02-08T22:51:23.892Z,41.93
2018-02-08T22:53:51.254Z,43.20
2018-02-08T22:56:18.177Z,43.07
2018-02-08T22:58:44.561Z,41.87
2018-02-08T23:01:10.807Z,44.30
2018-02-08T23:03:37.231Z,42.20
2018-02-08T23:06:03.459Z,41.50
2018-02-08T23:08:29.895Z,42.30
2018-02-08T23:10:56.423Z,40.85
2018-02-08T23:13:22.704Z,41.50
2018-02-08T23:15:48.953Z,44.13
2018-02-08T23:18:15.434Z,46.27
2018-02-08T23:20:41.628Z,43.97
2018-02-08T23:23:07.880Z,47.10
2018-02-08T23:25:34.385Z,43.65
2018-02-08T23:28:01.770Z,41.97
2018-02-08T23:30:28.063Z,43.97
2018-02-08T23:35:35.396Z,43.10
2018-02-08T23:38:01.588Z,42.13
2018-02-08T23:40:27.997Z,43.50
2018-02-08T23:42:56.861Z,40.95
2018-02-08T23:45:25.768Z,43.25
2018-02-08T23:47:52.098Z,43.20
2018-02-08T23:50:18.340Z,43.70
2018-02-08T23:52:44.539Z,41.78
2018-02-08T23:55:10.784Z,45.85
2018-02-08T23:57:36.977Z,42.22
